首页
METAR-TAF:

METAR-TAF

机场 :

大瀑布城, 蒙大拿州, 美国

纬度: 47-28-24N, 经度: 111-22-56W, 海拔: 1120米

当前天气观测

该预报发布于15分钟前的23:53 UTC
风速10节,风向北转西北,有时为17节阵风
温度 32°C
湿度 16%
气压 1014 hPa
能見度: 16.1公里
天空无云

METAR: KGTF 152353Z 34010G17KT 10SM CLR 32/03 A2993 RMK AO2 SLP103 T03220033 10333 20300 56008

时间: 18:08 (00:08 UTC)

预报

该预报发布于25分钟前的23:43 UTC
预报有效从16日的 00点(UTC)到 16日的 24点(UTC)
风速10节,风向西北,有时为21节阵风
能見度: 10公里
少量云层高于15000英尺
少量云层高于25000英尺
从 16日的 0200点(UTC)
风速9节,风向北转西北
能見度: 10公里
少量云层高于15000英尺
少量云层高于25000英尺
从 16日的 1100点(UTC)
风速6节,风向多变
能見度: 10公里
少量云层高于25000英尺

TAF: KGTF 152343Z 1600/1624 32010G21KT P6SM FEW150 FEW250 FM160200 33009KT P6SM FEW150 FEW250 FM161100 VRB06KT P6SM FEW250

超过4000个机场的气象观测和天气预报(METAR&TAF报告)。

可查询的气象台以黄色和红色小点在地图上表示。

将鼠标移到小点上方,可查看气象台名称。

然后点击查看天气观测和预报。

如需切换地图:点击带黑十字的绿色按钮放大地图;点击带横线的绿色按钮缩小地图;或者点击绿色箭头查看邻近地区的地图。


METAR-TAF: